KLWA

South Haven Area Regional Airport

South Haven, Michigan, USA
METAR KLWA 170215Z AUTO 07006KT 10SM CLR 00/M03 A3007 RMK AO2 T10051035
Observed Flight Rules
Dec-17 @ 02:15 UTC (18 minutes ago) Visual Flight Rules
Wind Visibility Clouds
70° at 6 knots 10 miles
  • Clear skies
Temperatures Readings
Current -1°C / 30°F
Dewpoint -4°C / 25°F
Humidity 80%
Altimeter 30.07" Hg
Pressure 1018 hPa
Elevation 203
METAR KLWA 170215Z AUTO 07006KT 10SM CLR 00/M03 A3007 RMK AO2 T10051035
Observed Flight Rules
Dec-17 @ 02:15 UTC
(18 minutes ago)
VFR
Wind Visibility
70° at 6 knots 10 miles
Clouds
  • Clear skies
Temperature Dewpoint
-1°C / 30°F -4°C / 25°F
Humidity Altimeter Pressure
80% 30.07" Hg 1018 hPa